Map

Track Data

SID SEASON NUMBER BASIN SUBBASIN NAME ISO_TIME NATURE LAT LON WMO_WIND WMO_PRES WMO_AGENCY TRACK_TYPE DIST2LAND LANDFALL IFLAG USA_AGENCY USA_ATCF_ID USA_LAT USA_LON USA_RECORD USA_STATUS USA_WIND USA_PRES USA_SSHS USA_R34_NE USA_R34_SE USA_R34_SW USA_R34_NW USA_R50_NE USA_R50_SE USA_R50_SW USA_R50_NW USA_R64_NE USA_R64_SE USA_R64_SW USA_R64_NW USA_POCI USA_ROCI USA_RMW USA_EYE TOKYO_LAT TOKYO_LON TOKYO_GRADE TOKYO_WIND TOKYO_PRES TOKYO_R50_DIR TOKYO_R50_LONG TOKYO_R50_SHORT TOKYO_R30_DIR TOKYO_R30_LONG TOKYO_R30_SHORT TOKYO_LAND CMA_LAT CMA_LON CMA_CAT CMA_WIND CMA_PRES HKO_LAT HKO_LON HKO_CAT HKO_WIND HKO_PRES NEWDELHI_LAT NEWDELHI_LON NEWDELHI_GRADE NEWDELHI_WIND NEWDELHI_PRES NEWDELHI_CI NEWDELHI_DP NEWDELHI_POCI REUNION_LAT REUNION_LON REUNION_TYPE REUNION_WIND REUNION_PRES REUNION_TNUM REUNION_CI REUNION_RMW REUNION_R34_NE REUNION_R34_SE REUNION_R34_SW REUNION_R34_NW REUNION_R50_NE REUNION_R50_SE REUNION_R50_SW REUNION_R50_NW REUNION_R64_NE REUNION_R64_SE REUNION_R64_SW REUNION_R64_NW BOM_LAT BOM_LON BOM_TYPE BOM_WIND BOM_PRES BOM_TNUM BOM_CI BOM_RMW BOM_R34_NE BOM_R34_SE BOM_R34_SW BOM_R34_NW BOM_R50_NE BOM_R50_SE BOM_R50_SW BOM_R50_NW BOM_R64_NE BOM_R64_SE BOM_R64_SW BOM_R64_NW BOM_ROCI BOM_POCI BOM_EYE BOM_POS_METHOD BOM_PRES_METHOD NADI_LAT NADI_LON NADI_CAT NADI_WIND NADI_PRES WELLINGTON_LAT WELLINGTON_LON WELLINGTON_WIND WELLINGTON_PRES DS824_LAT DS824_LON DS824_STAGE DS824_WIND DS824_PRES TD9636_LAT TD9636_LON TD9636_STAGE TD9636_WIND TD9636_PRES TD9635_LAT TD9635_LON TD9635_WIND TD9635_PRES TD9635_ROCI NEUMANN_LAT NEUMANN_LON NEUMANN_CLASS NEUMANN_WIND NEUMANN_PRES MLC_LAT MLC_LON MLC_CLASS MLC_WIND MLC_PRES USA_GUST BOM_GUST BOM_GUST_PER REUNION_GUST REUNION_GUST_PER USA_SEAHGT USA_SEARAD_NE USA_SEARAD_SE USA_SEARAD_SW USA_SEARAD_NW STORM_SPEED STORM_DIR
1868304N27304 1868 17 NA NA NOT_NAMED 1868-10-29 12:00:00 TS 26.8000 -56.2000 main 1345 1337 _____________O -1 26.8000 -56.2000 TD 30 5 162
1868304N27304 1868 17 NA NA NOT_NAMED 1868-10-29 15:00:00 TS 26.5500 -56.1100 main 1337 1322 _____________P -1 26.5500 -56.1100 TD 30 5 160
1868304N27304 1868 17 NA NA NOT_NAMED 1868-10-29 18:00:00 TS 26.3000 -56.0000 main 1323 1316 _____________O -1 26.3000 -56.0000 TD 30 5 156
1868304N27304 1868 17 NA NA NOT_NAMED 1868-10-29 21:00:00 TS 26.0500 -55.8699 main 1316 1304 _____________P -1 26.0500 -55.8699 TD 30 5 160
1868304N27304 1868 17 NA NA NOT_NAMED 1868-10-30 00:00:00 TS 25.8000 -55.8000 main 1304 1282 _____________O -1 25.8000 -55.8000 TD 30 5 182
1868304N27304 1868 17 NA NA NOT_NAMED 1868-10-30 03:00:00 TS 25.5500 -55.8701 main 1282 1254 _____________P -1 25.5500 -55.8701 TD 32 5 200
1868304N27304 1868 17 NA NA NOT_NAMED 1868-10-30 06:00:00 TS 25.3000 -56.0000 main 1254 1235 _____________O -1 25.3000 -56.0000 TS 35 5 197
1868304N27304 1868 17 NA NA NOT_NAMED 1868-10-30 09:00:00 TS 25.0273 -56.0473 main 1235 1205 _____________P -1 25.0273 -56.0473 TS 40 5 200
1868304N27304 1868 17 NA NA NOT_NAMED 1868-10-30 12:00:00 TS 24.8000 -56.2000 main 1205 1166 _____________O -1 24.8000 -56.2000 TS 45 6 235
1868304N27304 1868 17 NA NA NOT_NAMED 1868-10-30 15:00:00 TS 24.6777 -56.5975 main 1166 1119 _____________P -1 24.6777 -56.5975 TS 50 8 256
1868304N27304 1868 17 NA NA NOT_NAMED 1868-10-30 18:00:00 TS 24.6000 -57.1000 main 1119 1080 _____________O -1 24.6000 -57.1000 TS 55 9 258
1868304N27304 1868 17 NA NA NOT_NAMED 1868-10-30 21:00:00 TS 24.4998 -57.5424 main 1080 1033 _____________P -1 24.4998 -57.5424 TS 57 8 256
1868304N27304 1868 17 NA NA NOT_NAMED 1868-10-31 00:00:00 TS 24.4000 -58.0000 main 1033 987 _____________O -1 24.4000 -58.0000 TS 60 9 257
1868304N27304 1868 17 NA NA NOT_NAMED 1868-10-31 03:00:00 TS 24.3000 -58.5000 main 987 941 _____________P -1 24.3000 -58.5000 TS 62 9 258
1868304N27304 1868 17 NA NA NOT_NAMED 1868-10-31 06:00:00 TS 24.2000 -59.0000 main 941 897 _____________O -1 24.2000 -59.0000 HU 65 9 254
1868304N27304 1868 17 NA NA NOT_NAMED 1868-10-31 09:00:00 TS 24.0476 -59.4953 main 889 860 _____________P -1 24.0476 -59.4953 HU 65 8 256
1868304N27304 1868 17 NA NA NOT_NAMED 1868-10-31 12:00:00 TS 24.0000 -59.9000 main 860 853 _____________O -1 24.0000 -59.9000 HU 65 6 284
1868304N27304 1868 17 NA NA NOT_NAMED 1868-10-31 15:00:00 TS 24.1973 -60.1597 main 856 856 _____________P -1 24.1973 -60.1597 HU 65 6 324
1868304N27304 1868 17 NA NA NOT_NAMED 1868-10-31 18:00:00 TS 24.5000 -60.3000 main 874 874 _____________O -1 24.5000 -60.3000 HU 65 6 335
1868304N27304 1868 17 NA NA NOT_NAMED 1868-10-31 21:00:00 TS 24.7497 -60.4472 main 885 885 _____________P -1 24.7497 -60.4472 HU 65 5 350
1868304N27304 1868 17 NA NA NOT_NAMED 1868-11-01 00:00:00 TS 25.0000 -60.4000 main 912 912 _____________O -1 25.0000 -60.4000 HU 65 6 38
1868304N27304 1868 17 NA NA NOT_NAMED 1868-11-01 03:00:00 TS 25.2503 -60.0178 main 963 963 _____________P -1 25.2503 -60.0178 HU 65 10 58
1868304N27304 1868 17 NA NA NOT_NAMED 1868-11-01 06:00:00 TS 25.5000 -59.5000 main 1012 1012 _____________O -1 25.5000 -59.5000 HU 65 10 59
1868304N27304 1868 17 NA NA NOT_NAMED 1868-11-01 09:00:00 TS 25.7726 -59.0552 main 1063 1063 _____________P -1 25.7726 -59.0552 HU 65 9 55
1868304N27304 1868 17 NA NA NOT_NAMED 1868-11-01 12:00:00 TS 26.0000 -58.7000 main 1106 1106 _____________O -1 26.0000 -58.7000 HU 65 6 54
1868304N27304 1868 17 NA NA NOT_NAMED 1868-11-01 15:00:00 TS 26.1298 -58.5122 main 1128 1128 _____________P -1 26.1298 -58.5122 HU 65 3 53
1868304N27304 1868 17 NA NA NOT_NAMED 1868-11-01 18:00:00 TS 26.2000 -58.4000 main 1143 1143 _____________O -1 26.2000 -58.4000 HU 65 3 63
1868304N27304 1868 17 NA NA NOT_NAMED 1868-11-01 21:00:00 TS 26.2500 -58.2499 main 1156 1156 _____________P -1 26.2500 -58.2499 HU 65 3 69
1868304N27304 1868 17 NA NA NOT_NAMED 1868-11-02 00:00:00 TS 26.3000 -58.1000 main 1171 1171 _____________O -1 26.3000 -58.1000 HU 65 3 61
1868304N27304 1868 17 NA NA NOT_NAMED 1868-11-02 03:00:00 TS 26.4000 -57.9500 main 1186 1186 _____________P -1 26.4000 -57.9500 HU 60 3 53
1868304N27304 1868 17 NA NA NOT_NAMED 1868-11-02 06:00:00 TS 26.5000 -57.8000 main 1208 1208 _____________O -1 26.5000 -57.8000 TS 55 3 59
1868304N27304 1868 17 NA NA NOT_NAMED 1868-11-02 09:00:00 TS 26.5625 -57.6500 main 1230 1230 _____________P -1 26.5625 -57.6500 TS 47 3 69
1868304N27304 1868 17 NA NA NOT_NAMED 1868-11-02 12:00:00 TS 26.6000 -57.5000 main 1237 _____________O -1 26.6000 -57.5000 TS 40 3 74

About IBTrACS Database

This database is a web-friendly format of International Best Track Archive for Climate Stewardship (IBTrACS), a global best track data archive curated by NOAA dating back to 1842.

Updated: 2021-12-03